aviador You're here:

LFYR Decoded Metar

ROMORANTIN/PRUNI in FRANCE
Report Time2017-12-11 05:00:00
UTC Time2017-12-11 05:34:25
Flight Rules vfr VFR
Wind210° at 18 kt
W.Decomp.*RWY 23: 17.0 kt HW 5.9 kt LCW
W.Rank210° ranks 3
Current wind is above 210° avg. (6.4)
Visibility9999 m
Phenomena:N/A
Clouds:Scattered 027 Hf
Scattered 068 Hf
Broken 080 Hf
Expected CloudBase > 1,200 ft AGL from Temp-Dew spread
Ceiling8,000 ft
Temp11°C (ISA -3)
Dew Point08°C (82% RH)
AAT4.1°C
QNH0973 hPa
Density Alt1,398 ft
Elevation282 ft
Report Wrong Elevation
Raw Report
METAR LFYR 110500Z AUTO 21018KT 9999 SCT027 SCT068 BKN080 11/08 Q0973=

Extra information for LFYR:More info

Metar Taf Metar & Taf Last 4 Metars F.Rules Stats Wind Profile Meteogram Temp Stats Airport Information Weather charts Add Link Nearby VenuesMetar ALERT Operation Metar Decoded Social comments